FDX84 LOWW-KJFK
Flight info
| Callsign | FDX84 |
|---|---|
| Flight time | N/A |
| Altitude | 28000 |
| Route | MEDIX DCT LAMSI DCT MAMOR DCT PETIX DCT TUSUK DCT ADKUV DCT NIK L610 RAPIX/N0453F300 L610 KOPUL Q63 ICTAM T421 DIDZA DCT CESQA DCT BIBPE DCT OKTAD DCT MEDOG DCT PEMOB DCT BAKUR DCT NEBIN/M077F310 NATA TUDEP/N0454F320 N528A HULTN DCT ENE PARCH4 |
| Aircraft | A306/H-SDE3FGHIRWY/LB1 |
Departure
| Time | 2026-04-22 15:04 |
|---|---|
| Airport | Vienna International Airport (LOWW) |
Arrival
| Time | N/A |
|---|---|
| Airport | John F. Kennedy International Airport (KJFK) |
| Time | Latitude | Longitude | Altitude | Speed | Heading |
|---|---|---|---|---|---|
| 2026-04-22 14:36 | 48.12252 | 16.54614 | 628 ft | 0 kts | 26° |
| 2026-04-22 14:50 | 48.12251 | 16.54613 | 615 ft | 1 kts | 26° |
| 2026-04-22 14:50 | 48.12229 | 16.54598 | 630 ft | 4 kts | 26° |
| 2026-04-22 14:50 | 48.12205 | 16.54580 | 625 ft | 3 kts | 26° |
| 2026-04-22 14:51 | 48.12186 | 16.54563 | 624 ft | 4 kts | 62° |
| 2026-04-22 14:51 | 48.12184 | 16.54529 | 615 ft | 4 kts | 112° |
| 2026-04-22 14:51 | 48.12190 | 16.54509 | 615 ft | 1 kts | 116° |
| 2026-04-22 14:51 | 48.12191 | 16.54507 | 615 ft | 0 kts | 116° |
| 2026-04-22 14:54 | 48.12191 | 16.54508 | 615 ft | 1 kts | 116° |
| 2026-04-22 14:55 | 48.12178 | 16.54547 | 625 ft | 7 kts | 116° |
| 2026-04-22 14:55 | 48.12126 | 16.54598 | 615 ft | 12 kts | 169° |
| 2026-04-22 14:55 | 48.12053 | 16.54684 | 615 ft | 16 kts | 118° |
| 2026-04-22 14:55 | 48.11996 | 16.54858 | 627 ft | 21 kts | 115° |
| 2026-04-22 14:56 | 48.11926 | 16.55071 | 627 ft | 25 kts | 116° |
| 2026-04-22 14:56 | 48.11855 | 16.55290 | 622 ft | 22 kts | 115° |
| 2026-04-22 14:56 | 48.11793 | 16.55489 | 619 ft | 20 kts | 117° |
| 2026-04-22 14:56 | 48.11735 | 16.55659 | 627 ft | 17 kts | 115° |
| 2026-04-22 14:57 | 48.11686 | 16.55813 | 615 ft | 16 kts | 116° |
| 2026-04-22 14:57 | 48.11637 | 16.55963 | 624 ft | 16 kts | 116° |
| 2026-04-22 14:57 | 48.11588 | 16.56111 | 615 ft | 16 kts | 116° |
| 2026-04-22 14:57 | 48.11540 | 16.56258 | 627 ft | 16 kts | 116° |
| 2026-04-22 14:58 | 48.11492 | 16.56406 | 620 ft | 17 kts | 115° |
| 2026-04-22 14:58 | 48.11435 | 16.56577 | 626 ft | 20 kts | 117° |
| 2026-04-22 14:58 | 48.11369 | 16.56781 | 628 ft | 23 kts | 115° |
| 2026-04-22 14:58 | 48.11298 | 16.57011 | 627 ft | 26 kts | 117° |
| 2026-04-22 14:59 | 48.11214 | 16.57257 | 622 ft | 28 kts | 116° |
| 2026-04-22 14:59 | 48.11153 | 16.57444 | 627 ft | 15 kts | 114° |
| 2026-04-22 14:59 | 48.11114 | 16.57575 | 619 ft | 13 kts | 113° |
| 2026-04-22 14:59 | 48.11088 | 16.57654 | 619 ft | 2 kts | 133° |
| 2026-04-22 15:00 | 48.11085 | 16.57655 | 615 ft | 0 kts | 155° |
| 2026-04-22 15:00 | 48.11083 | 16.57655 | 628 ft | 2 kts | 163° |
| 2026-04-22 15:00 | 48.11051 | 16.57649 | 628 ft | 7 kts | 195° |
| 2026-04-22 15:00 | 48.10988 | 16.57610 | 617 ft | 11 kts | 213° |
| 2026-04-22 15:01 | 48.10940 | 16.57556 | 621 ft | 6 kts | 215° |
| 2026-04-22 15:01 | 48.10923 | 16.57515 | 615 ft | 3 kts | 261° |
| 2026-04-22 15:01 | 48.10926 | 16.57495 | 618 ft | 1 kts | 289° |
| 2026-04-22 15:01 | 48.10928 | 16.57490 | 615 ft | 1 kts | 295° |
| 2026-04-22 15:02 | 48.10929 | 16.57487 | 615 ft | 0 kts | 298° |
| 2026-04-22 15:03 | 48.11008 | 16.57248 | 618 ft | 57 kts | 296° |
| 2026-04-22 15:04 | 48.11273 | 16.56435 | 627 ft | 115 kts | 295° |
| 2026-04-22 15:04 | 48.11703 | 16.55112 | 622 ft | 167 kts | 296° |
| 2026-04-22 15:04 | 48.12250 | 16.53378 | 1015 ft | 193 kts | 295° |
| 2026-04-22 15:04 | 48.12806 | 16.51513 | 1985 ft | 189 kts | 299° |
| 2026-04-22 15:05 | 48.13225 | 16.49711 | 2971 ft | 188 kts | 273° |
| 2026-04-22 15:05 | 48.12735 | 16.47847 | 3371 ft | 212 kts | 229° |
| 2026-04-22 15:05 | 48.11393 | 16.46874 | 3850 ft | 224 kts | 187° |
| 2026-04-22 15:05 | 48.09817 | 16.46811 | 4464 ft | 227 kts | 184° |
| 2026-04-22 15:06 | 48.08769 | 16.46686 | 4860 ft | 230 kts | 188° |
| 2026-04-22 15:06 | 48.06775 | 16.45642 | 5633 ft | 230 kts | 219° |
| 2026-04-22 15:06 | 48.05489 | 16.44164 | 6152 ft | 236 kts | 222° |
| 2026-04-22 15:06 | 48.04211 | 16.42544 | 6577 ft | 248 kts | 223° |
| 2026-04-22 15:07 | 48.02843 | 16.40798 | 6770 ft | 268 kts | 223° |
| 2026-04-22 15:07 | 48.01411 | 16.38960 | 7028 ft | 281 kts | 223° |
| 2026-04-22 15:07 | 47.99911 | 16.37025 | 7589 ft | 288 kts | 223° |
| 2026-04-22 15:07 | 47.98400 | 16.35043 | 8341 ft | 289 kts | 226° |
| 2026-04-22 15:08 | 47.97174 | 16.32679 | 8983 ft | 289 kts | 248° |
| 2026-04-22 15:08 | 47.96756 | 16.29784 | 9616 ft | 285 kts | 276° |
| 2026-04-22 15:08 | 47.97164 | 16.26926 | 10270 ft | 284 kts | 291° |
| 2026-04-22 15:08 | 47.97840 | 16.24077 | 10563 ft | 300 kts | 293° |
| 2026-04-22 15:09 | 47.98592 | 16.21071 | 10793 ft | 316 kts | 293° |
| 2026-04-22 15:09 | 47.99372 | 16.17916 | 11018 ft | 331 kts | 293° |
| 2026-04-22 15:09 | 48.00177 | 16.14612 | 11247 ft | 345 kts | 292° |
| 2026-04-22 15:09 | 48.01007 | 16.11174 | 11443 ft | 359 kts | 292° |
| 2026-04-22 15:10 | 48.01859 | 16.07617 | 11807 ft | 366 kts | 292° |
| 2026-04-22 15:10 | 48.02708 | 16.04046 | 12228 ft | 371 kts | 292° |
| 2026-04-22 15:10 | 48.03577 | 16.00381 | 12695 ft | 374 kts | 292° |
| 2026-04-22 15:10 | 48.04448 | 15.96704 | 13172 ft | 378 kts | 292° |
| 2026-04-22 15:11 | 48.05327 | 15.92991 | 13664 ft | 380 kts | 292° |
| 2026-04-22 15:11 | 48.06216 | 15.89237 | 14123 ft | 384 kts | 292° |
| 2026-04-22 15:11 | 48.07095 | 15.85508 | 14597 ft | 386 kts | 292° |
| 2026-04-22 15:11 | 48.08013 | 15.81721 | 15024 ft | 389 kts | 295° |
| 2026-04-22 15:12 | 48.09307 | 15.78181 | 15481 ft | 387 kts | 308° |
| 2026-04-22 15:12 | 48.10962 | 15.74980 | 15945 ft | 388 kts | 312° |
| 2026-04-22 15:12 | 48.12686 | 15.71825 | 16400 ft | 391 kts | 312° |
| 2026-04-22 15:12 | 48.14420 | 15.68659 | 16837 ft | 394 kts | 312° |
| 2026-04-22 15:13 | 48.16136 | 15.65514 | 17271 ft | 397 kts | 312° |
| 2026-04-22 15:13 | 48.17884 | 15.62294 | 17683 ft | 399 kts | 312° |
| 2026-04-22 15:13 | 48.19645 | 15.59043 | 18070 ft | 402 kts | 312° |
| 2026-04-22 15:13 | 48.21415 | 15.55770 | 18487 ft | 405 kts | 312° |
| 2026-04-22 15:14 | 48.23192 | 15.52480 | 18855 ft | 407 kts | 312° |
| 2026-04-22 15:14 | 48.24977 | 15.49162 | 19224 ft | 410 kts | 312° |
| 2026-04-22 15:14 | 48.26770 | 15.45821 | 19581 ft | 412 kts | 312° |
| 2026-04-22 15:14 | 48.28483 | 15.42334 | 19927 ft | 417 kts | 306° |
| 2026-04-22 15:15 | 48.29826 | 15.38503 | 20273 ft | 423 kts | 296° |
| 2026-04-22 15:15 | 48.30876 | 15.34346 | 20600 ft | 427 kts | 292° |
| 2026-04-22 15:15 | 48.31800 | 15.30085 | 20913 ft | 430 kts | 290° |